sensor_id;sensor_type;location;lat;lon;timestamp;temperature;humidity
5222;DHT22;2630;52.036;8.514;2022-10-31T00:02:56;14.60;99.90
5222;DHT22;2630;52.036;8.514;2022-10-31T00:07:52;14.50;99.90
5222;DHT22;2630;52.036;8.514;2022-10-31T00:12:43;14.50;99.90
5222;DHT22;2630;52.036;8.514;2022-10-31T00:15:09;14.40;99.90
5222;DHT22;2630;52.036;8.514;2022-10-31T00:22:27;14.30;99.90
5222;DHT22;2630;52.036;8.514;2022-10-31T00:24:53;14.40;99.90
5222;DHT22;2630;52.036;8.514;2022-10-31T00:27:18;14.40;99.90
5222;DHT22;2630;52.036;8.514;2022-10-31T00:29:44;14.40;99.90
5222;DHT22;2630;52.036;8.514;2022-10-31T00:32:09;14.40;99.90
5222;DHT22;2630;52.036;8.514;2022-10-31T00:34:35;14.30;99.90
5222;DHT22;2630;52.036;8.514;2022-10-31T00:37:00;14.30;99.90
5222;DHT22;2630;52.036;8.514;2022-10-31T00:39:26;14.20;99.90
5222;DHT22;2630;52.036;8.514;2022-10-31T00:44:18;14.20;99.90
5222;DHT22;2630;52.036;8.514;2022-10-31T00:46:43;14.20;99.90
5222;DHT22;2630;52.036;8.514;2022-10-31T00:51:35;14.10;99.90
5222;DHT22;2630;52.036;8.514;2022-10-31T00:54:00;14.10;99.90
5222;DHT22;2630;52.036;8.514;2022-10-31T00:56:26;14.00;99.90
5222;DHT22;2630;52.036;8.514;2022-10-31T00:58:51;14.10;99.90
5222;DHT22;2630;52.036;8.514;2022-10-31T01:01:17;14.10;99.90
5222;DHT22;2630;52.036;8.514;2022-10-31T01:03:42;14.10;99.90
5222;DHT22;2630;52.036;8.514;2022-10-31T01:06:10;14.10;99.90
5222;DHT22;2630;52.036;8.514;2022-10-31T01:08:37;14.00;99.90
5222;DHT22;2630;52.036;8.514;2022-10-31T01:11:22;13.80;99.90
5222;DHT22;2630;52.036;8.514;2022-10-31T01:16:17;13.80;99.90
5222;DHT22;2630;52.036;8.514;2022-10-31T01:18:43;13.80;99.90
5222;DHT22;2630;52.036;8.514;2022-10-31T01:23:43;13.80;99.90
5222;DHT22;2630;52.036;8.514;2022-10-31T01:29:03;13.60;99.90
5222;DHT22;2630;52.036;8.514;2022-10-31T01:31:31;13.60;99.90
5222;DHT22;2630;52.036;8.514;2022-10-31T01:33:58;13.60;99.90
5222;DHT22;2630;52.036;8.514;2022-10-31T01:36:35;13.60;99.90
5222;DHT22;2630;52.036;8.514;2022-10-31T01:39:05;13.60;99.90
5222;DHT22;2630;52.036;8.514;2022-10-31T01:41:33;13.60;99.90
5222;DHT22;2630;52.036;8.514;2022-10-31T01:44:02;13.50;99.90
5222;DHT22;2630;52.036;8.514;2022-10-31T01:46:36;13.50;99.90
5222;DHT22;2630;52.036;8.514;2022-10-31T01:49:05;13.40;99.90
5222;DHT22;2630;52.036;8.514;2022-10-31T01:51:39;13.30;99.90
5222;DHT22;2630;52.036;8.514;2022-10-31T01:59:05;13.30;99.90
5222;DHT22;2630;52.036;8.514;2022-10-31T02:01:31;13.20;99.90
5222;DHT22;2630;52.036;8.514;2022-10-31T02:03:57;13.20;99.90
5222;DHT22;2630;52.036;8.514;2022-10-31T02:06:45;13.20;99.90
5222;DHT22;2630;52.036;8.514;2022-10-31T02:09:12;13.10;99.90
5222;DHT22;2630;52.036;8.514;2022-10-31T02:11:39;13.10;99.90
5222;DHT22;2630;52.036;8.514;2022-10-31T02:16:31;13.00;99.90
5222;DHT22;2630;52.036;8.514;2022-10-31T02:18:57;12.90;99.90
5222;DHT22;2630;52.036;8.514;2022-10-31T02:22:09;12.90;99.90
5222;DHT22;2630;52.036;8.514;2022-10-31T02:27:19;12.80;99.90
5222;DHT22;2630;52.036;8.514;2022-10-31T02:37:57;12.80;99.90
5222;DHT22;2630;52.036;8.514;2022-10-31T02:43:10;12.80;99.90
5222;DHT22;2630;52.036;8.514;2022-10-31T02:45:52;12.60;99.90
5222;DHT22;2630;52.036;8.514;2022-10-31T02:48:24;12.60;99.90
5222;DHT22;2630;52.036;8.514;2022-10-31T02:50:58;12.70;99.90
5222;DHT22;2630;52.036;8.514;2022-10-31T02:53:25;12.70;99.90
5222;DHT22;2630;52.036;8.514;2022-10-31T03:11:07;13.10;99.90
5222;DHT22;2630;52.036;8.514;2022-10-31T03:13:48;13.20;99.90
5222;DHT22;2630;52.036;8.514;2022-10-31T03:16:16;13.20;99.90
5222;DHT22;2630;52.036;8.514;2022-10-31T03:18:50;13.30;99.90
5222;DHT22;2630;52.036;8.514;2022-10-31T03:21:29;13.30;99.90
5222;DHT22;2630;52.036;8.514;2022-10-31T03:23:58;13.40;99.90
5222;DHT22;2630;52.036;8.514;2022-10-31T03:26:25;13.40;99.90
5222;DHT22;2630;52.036;8.514;2022-10-31T03:29:05;13.50;99.90
5222;DHT22;2630;52.036;8.514;2022-10-31T03:32:06;13.50;99.90
5222;DHT22;2630;52.036;8.514;2022-10-31T03:36:59;13.50;99.90
5222;DHT22;2630;52.036;8.514;2022-10-31T03:39:26;13.40;99.90
5222;DHT22;2630;52.036;8.514;2022-10-31T03:44:21;13.30;99.90
5222;DHT22;2630;52.036;8.514;2022-10-31T03:46:48;13.20;99.90
5222;DHT22;2630;52.036;8.514;2022-10-31T03:49:14;13.20;99.90
5222;DHT22;2630;52.036;8.514;2022-10-31T03:54:24;13.00;99.90
5222;DHT22;2630;52.036;8.514;2022-10-31T03:56:55;12.90;99.90
5222;DHT22;2630;52.036;8.514;2022-10-31T03:59:26;12.70;99.90
5222;DHT22;2630;52.036;8.514;2022-10-31T04:01:57;12.60;99.90
5222;DHT22;2630;52.036;8.514;2022-10-31T04:04:25;12.60;99.90
5222;DHT22;2630;52.036;8.514;2022-10-31T04:06:53;12.60;99.90
5222;DHT22;2630;52.036;8.514;2022-10-31T04:11:50;12.40;99.90
5222;DHT22;2630;52.036;8.514;2022-10-31T04:19:12;12.20;99.90
5222;DHT22;2630;52.036;8.514;2022-10-31T04:21:38;12.20;99.90
5222;DHT22;2630;52.036;8.514;2022-10-31T04:24:04;12.20;99.90
5222;DHT22;2630;52.036;8.514;2022-10-31T04:26:29;12.10;99.90
5222;DHT22;2630;52.036;8.514;2022-10-31T04:28:55;12.10;99.90
5222;DHT22;2630;52.036;8.514;2022-10-31T04:31:21;12.00;99.90
5222;DHT22;2630;52.036;8.514;2022-10-31T04:33:46;12.10;99.90
5222;DHT22;2630;52.036;8.514;2022-10-31T04:38:38;12.00;99.90
5222;DHT22;2630;52.036;8.514;2022-10-31T04:41:03;12.00;99.90
5222;DHT22;2630;52.036;8.514;2022-10-31T04:43:29;11.80;99.90
5222;DHT22;2630;52.036;8.514;2022-10-31T04:45:54;11.80;99.90
5222;DHT22;2630;52.036;8.514;2022-10-31T04:48:20;11.80;99.90
5222;DHT22;2630;52.036;8.514;2022-10-31T04:50:46;11.80;99.90
5222;DHT22;2630;52.036;8.514;2022-10-31T04:58:03;11.80;99.90
5222;DHT22;2630;52.036;8.514;2022-10-31T05:00:29;11.80;99.90
5222;DHT22;2630;52.036;8.514;2022-10-31T05:02:56;11.80;99.90
5222;DHT22;2630;52.036;8.514;2022-10-31T05:07:50;11.80;99.90
5222;DHT22;2630;52.036;8.514;2022-10-31T05:10:19;11.70;99.90
5222;DHT22;2630;52.036;8.514;2022-10-31T05:12:50;11.80;99.90
5222;DHT22;2630;52.036;8.514;2022-10-31T05:15:16;11.70;99.90
5222;DHT22;2630;52.036;8.514;2022-10-31T05:17:42;11.70;99.90
5222;DHT22;2630;52.036;8.514;2022-10-31T05:22:34;11.70;99.90
5222;DHT22;2630;52.036;8.514;2022-10-31T05:27:25;11.70;99.90
5222;DHT22;2630;52.036;8.514;2022-10-31T05:29:51;11.60;99.90
5222;DHT22;2630;52.036;8.514;2022-10-31T05:34:42;11.50;99.90
5222;DHT22;2630;52.036;8.514;2022-10-31T05:37:08;11.50;99.90
5222;DHT22;2630;52.036;8.514;2022-10-31T05:39:34;11.40;99.90
5222;DHT22;2630;52.036;8.514;2022-10-31T05:41:59;11.40;99.90
5222;DHT22;2630;52.036;8.514;2022-10-31T05:44:25;11.40;99.90
5222;DHT22;2630;52.036;8.514;2022-10-31T05:46:50;11.40;99.90
5222;DHT22;2630;52.036;8.514;2022-10-31T05:51:42;11.40;99.90
5222;DHT22;2630;52.036;8.514;2022-10-31T05:54:08;11.30;99.90
5222;DHT22;2630;52.036;8.514;2022-10-31T06:03:51;11.30;99.90
5222;DHT22;2630;52.036;8.514;2022-10-31T06:06:17;11.30;99.90
5222;DHT22;2630;52.036;8.514;2022-10-31T06:08:42;11.20;99.90
5222;DHT22;2630;52.036;8.514;2022-10-31T06:11:08;11.20;99.90
5222;DHT22;2630;52.036;8.514;2022-10-31T06:13:34;11.20;99.90
5222;DHT22;2630;52.036;8.514;2022-10-31T06:15:59;11.10;99.90
5222;DHT22;2630;52.036;8.514;2022-10-31T06:18:25;11.10;99.90
5222;DHT22;2630;52.036;8.514;2022-10-31T06:20:50;11.10;99.90
5222;DHT22;2630;52.036;8.514;2022-10-31T06:23:16;11.10;99.90
5222;DHT22;2630;52.036;8.514;2022-10-31T06:25:41;11.10;99.90
5222;DHT22;2630;52.036;8.514;2022-10-31T06:28:07;11.10;99.90
5222;DHT22;2630;52.036;8.514;2022-10-31T06:30:32;11.00;99.90
5222;DHT22;2630;52.036;8.514;2022-10-31T06:33:03;10.90;99.90
5222;DHT22;2630;52.036;8.514;2022-10-31T06:35:29;10.80;99.90
5222;DHT22;2630;52.036;8.514;2022-10-31T06:37:54;10.80;99.90
5222;DHT22;2630;52.036;8.514;2022-10-31T06:40:20;10.90;99.90
5222;DHT22;2630;52.036;8.514;2022-10-31T06:42:46;10.90;99.90
5222;DHT22;2630;52.036;8.514;2022-10-31T06:45:12;11.00;99.90
5222;DHT22;2630;52.036;8.514;2022-10-31T06:47:38;11.00;99.90
5222;DHT22;2630;52.036;8.514;2022-10-31T06:50:03;11.10;99.90
5222;DHT22;2630;52.036;8.514;2022-10-31T06:52:29;11.10;99.90
5222;DHT22;2630;52.036;8.514;2022-10-31T06:54:55;11.20;99.90
5222;DHT22;2630;52.036;8.514;2022-10-31T06:57:20;11.30;99.90
5222;DHT22;2630;52.036;8.514;2022-10-31T06:59:46;11.40;99.90
5222;DHT22;2630;52.036;8.514;2022-10-31T07:02:11;11.50;99.90
5222;DHT22;2630;52.036;8.514;2022-10-31T07:07:03;11.60;99.90
5222;DHT22;2630;52.036;8.514;2022-10-31T07:09:29;11.60;99.90
5222;DHT22;2630;52.036;8.514;2022-10-31T07:11:54;11.60;99.90
5222;DHT22;2630;52.036;8.514;2022-10-31T07:14:20;11.80;99.90
5222;DHT22;2630;52.036;8.514;2022-10-31T07:16:49;11.90;99.90
5222;DHT22;2630;52.036;8.514;2022-10-31T07:19:15;12.00;99.90
5222;DHT22;2630;52.036;8.514;2022-10-31T07:21:41;12.10;99.90
5222;DHT22;2630;52.036;8.514;2022-10-31T07:24:07;12.20;99.90
5222;DHT22;2630;52.036;8.514;2022-10-31T07:26:32;12.00;99.90
5222;DHT22;2630;52.036;8.514;2022-10-31T07:28:58;12.10;99.90
5222;DHT22;2630;52.036;8.514;2022-10-31T07:31:24;12.20;99.90
5222;DHT22;2630;52.036;8.514;2022-10-31T07:33:50;12.40;99.90
5222;DHT22;2630;52.036;8.514;2022-10-31T07:36:16;12.40;99.90
5222;DHT22;2630;52.036;8.514;2022-10-31T07:38:41;12.40;99.90
5222;DHT22;2630;52.036;8.514;2022-10-31T07:41:07;12.70;99.90
5222;DHT22;2630;52.036;8.514;2022-10-31T07:43:32;12.90;99.90
5222;DHT22;2630;52.036;8.514;2022-10-31T07:48:24;13.50;99.90
5222;DHT22;2630;52.036;8.514;2022-10-31T07:53:16;14.10;99.90
5222;DHT22;2630;52.036;8.514;2022-10-31T07:55:42;14.50;99.90
5222;DHT22;2630;52.036;8.514;2022-10-31T07:58:12;14.70;99.90
5222;DHT22;2630;52.036;8.514;2022-10-31T08:00:40;14.80;99.90
5222;DHT22;2630;52.036;8.514;2022-10-31T08:03:11;15.10;99.90
5222;DHT22;2630;52.036;8.514;2022-10-31T08:05:37;15.10;99.90
5222;DHT22;2630;52.036;8.514;2022-10-31T08:08:04;15.20;99.90
5222;DHT22;2630;52.036;8.514;2022-10-31T08:10:30;15.20;99.90
5222;DHT22;2630;52.036;8.514;2022-10-31T08:12:57;15.10;99.90
5222;DHT22;2630;52.036;8.514;2022-10-31T08:15:23;15.10;99.90
5222;DHT22;2630;52.036;8.514;2022-10-31T08:17:49;15.20;99.90
5222;DHT22;2630;52.036;8.514;2022-10-31T08:20:15;15.30;99.90
5222;DHT22;2630;52.036;8.514;2022-10-31T08:22:40;15.30;99.90
5222;DHT22;2630;52.036;8.514;2022-10-31T08:25:07;15.40;99.90
5222;DHT22;2630;52.036;8.514;2022-10-31T08:27:33;15.40;99.90
5222;DHT22;2630;52.036;8.514;2022-10-31T08:29:59;15.50;99.90
5222;DHT22;2630;52.036;8.514;2022-10-31T08:32:24;15.50;99.90
5222;DHT22;2630;52.036;8.514;2022-10-31T08:34:50;15.40;99.90
5222;DHT22;2630;52.036;8.514;2022-10-31T08:37:16;15.40;99.90
5222;DHT22;2630;52.036;8.514;2022-10-31T08:39:45;15.40;99.90
5222;DHT22;2630;52.036;8.514;2022-10-31T08:42:11;15.40;99.90
5222;DHT22;2630;52.036;8.514;2022-10-31T08:44:37;15.30;99.90
5222;DHT22;2630;52.036;8.514;2022-10-31T08:47:03;15.30;99.90
5222;DHT22;2630;52.036;8.514;2022-10-31T08:51:54;15.30;99.90
5222;DHT22;2630;52.036;8.514;2022-10-31T08:54:20;15.30;99.90
5222;DHT22;2630;52.036;8.514;2022-10-31T08:56:46;15.30;99.90
5222;DHT22;2630;52.036;8.514;2022-10-31T08:59:11;15.40;99.90
5222;DHT22;2630;52.036;8.514;2022-10-31T09:04:03;15.60;99.90
5222;DHT22;2630;52.036;8.514;2022-10-31T09:06:28;15.70;99.90
5222;DHT22;2630;52.036;8.514;2022-10-31T09:08:54;15.70;99.90
5222;DHT22;2630;52.036;8.514;2022-10-31T09:11:19;15.80;99.90
5222;DHT22;2630;52.036;8.514;2022-10-31T09:13:45;15.90;99.90
5222;DHT22;2630;52.036;8.514;2022-10-31T09:16:11;15.80;99.90
5222;DHT22;2630;52.036;8.514;2022-10-31T09:18:36;15.80;99.90
5222;DHT22;2630;52.036;8.514;2022-10-31T09:21:02;15.60;99.90
5222;DHT22;2630;52.036;8.514;2022-10-31T09:23:27;15.60;99.90
5222;DHT22;2630;52.036;8.514;2022-10-31T09:25:53;15.50;99.90
5222;DHT22;2630;52.036;8.514;2022-10-31T09:28:22;15.50;99.90
5222;DHT22;2630;52.036;8.514;2022-10-31T09:30:50;15.60;99.90
5222;DHT22;2630;52.036;8.514;2022-10-31T09:35:42;15.70;99.90
5222;DHT22;2630;52.036;8.514;2022-10-31T09:38:19;15.80;99.90
5222;DHT22;2630;52.036;8.514;2022-10-31T09:44:26;15.90;99.90
5222;DHT22;2630;52.036;8.514;2022-10-31T09:49:16;16.40;99.90
5222;DHT22;2630;52.036;8.514;2022-10-31T09:54:43;16.70;99.90
5222;DHT22;2630;52.036;8.514;2022-10-31T09:57:15;16.90;99.90
5222;DHT22;2630;52.036;8.514;2022-10-31T09:59:43;17.10;99.90
5222;DHT22;2630;52.036;8.514;2022-10-31T10:02:48;17.20;99.90
5222;DHT22;2630;52.036;8.514;2022-10-31T10:30:03;18.40;99.90
5222;DHT22;2630;52.036;8.514;2022-10-31T10:34:27;18.70;99.90
5222;DHT22;2630;52.036;8.514;2022-10-31T10:37:05;18.80;99.90
5222;DHT22;2630;52.036;8.514;2022-10-31T10:42:11;18.90;99.90
5222;DHT22;2630;52.036;8.514;2022-10-31T10:44:57;19.00;99.90
5222;DHT22;2630;52.036;8.514;2022-10-31T10:55:53;19.50;99.90
5222;DHT22;2630;52.036;8.514;2022-10-31T10:58:20;19.50;99.90
5222;DHT22;2630;52.036;8.514;2022-10-31T11:00:47;19.70;99.90
5222;DHT22;2630;52.036;8.514;2022-10-31T11:03:14;19.80;99.90
5222;DHT22;2630;52.036;8.514;2022-10-31T11:10:34;20.20;99.90
5222;DHT22;2630;52.036;8.514;2022-10-31T11:17:58;20.00;99.90
5222;DHT22;2630;52.036;8.514;2022-10-31T11:20:32;19.80;99.90
5222;DHT22;2630;52.036;8.514;2022-10-31T11:23:20;19.80;99.90
5222;DHT22;2630;52.036;8.514;2022-10-31T11:26:06;19.80;99.90
5222;DHT22;2630;52.036;8.514;2022-10-31T11:28:33;19.90;99.90
5222;DHT22;2630;52.036;8.514;2022-10-31T11:31:07;19.90;99.90
5222;DHT22;2630;52.036;8.514;2022-10-31T11:33:53;19.70;99.90
5222;DHT22;2630;52.036;8.514;2022-10-31T11:38:50;19.90;99.90
5222;DHT22;2630;52.036;8.514;2022-10-31T11:41:30;19.90;99.90
5222;DHT22;2630;52.036;8.514;2022-10-31T11:44:03;19.80;99.90
5222;DHT22;2630;52.036;8.514;2022-10-31T11:46:39;19.70;99.90
5222;DHT22;2630;52.036;8.514;2022-10-31T11:49:20;19.60;99.90
5222;DHT22;2630;52.036;8.514;2022-10-31T11:51:52;19.60;99.90
5222;DHT22;2630;52.036;8.514;2022-10-31T11:54:25;19.50;99.90
5222;DHT22;2630;52.036;8.514;2022-10-31T11:56:52;19.40;99.90
5222;DHT22;2630;52.036;8.514;2022-10-31T12:01:51;19.30;99.90
5222;DHT22;2630;52.036;8.514;2022-10-31T12:06:44;19.20;99.90
5222;DHT22;2630;52.036;8.514;2022-10-31T12:09:23;19.20;99.90
5222;DHT22;2630;52.036;8.514;2022-10-31T12:28:47;19.10;99.90
5222;DHT22;2630;52.036;8.514;2022-10-31T12:31:38;19.10;99.90
5222;DHT22;2630;52.036;8.514;2022-10-31T12:42:30;19.10;99.90
5222;DHT22;2630;52.036;8.514;2022-10-31T12:53:35;19.00;99.90
5222;DHT22;2630;52.036;8.514;2022-10-31T12:56:10;19.00;99.90
5222;DHT22;2630;52.036;8.514;2022-10-31T12:58:45;19.10;99.90
5222;DHT22;2630;52.036;8.514;2022-10-31T13:01:32;19.10;99.90
5222;DHT22;2630;52.036;8.514;2022-10-31T13:06:53;18.90;99.90
5222;DHT22;2630;52.036;8.514;2022-10-31T13:09:47;18.80;99.90
5222;DHT22;2630;52.036;8.514;2022-10-31T13:12:18;18.80;99.90
5222;DHT22;2630;52.036;8.514;2022-10-31T13:14:53;18.80;99.90
5222;DHT22;2630;52.036;8.514;2022-10-31T13:17:43;18.70;99.90
5222;DHT22;2630;52.036;8.514;2022-10-31T13:20:26;18.80;99.90
5222;DHT22;2630;52.036;8.514;2022-10-31T13:25:38;18.90;99.90
5222;DHT22;2630;52.036;8.514;2022-10-31T13:30:50;19.10;99.90
5222;DHT22;2630;52.036;8.514;2022-10-31T13:33:26;19.10;99.90
5222;DHT22;2630;52.036;8.514;2022-10-31T13:41:33;19.30;99.90
5222;DHT22;2630;52.036;8.514;2022-10-31T13:44:15;19.50;99.90
5222;DHT22;2630;52.036;8.514;2022-10-31T13:46:43;19.50;99.90
5222;DHT22;2630;52.036;8.514;2022-10-31T13:51:52;19.40;99.90
5222;DHT22;2630;52.036;8.514;2022-10-31T13:56:52;19.40;99.90
5222;DHT22;2630;52.036;8.514;2022-10-31T13:59:21;19.30;99.90
5222;DHT22;2630;52.036;8.514;2022-10-31T14:04:23;19.20;99.90
5222;DHT22;2630;52.036;8.514;2022-10-31T14:07:05;19.20;99.90
5222;DHT22;2630;52.036;8.514;2022-10-31T14:09:37;19.10;99.90
5222;DHT22;2630;52.036;8.514;2022-10-31T14:12:22;19.00;99.90
5222;DHT22;2630;52.036;8.514;2022-10-31T14:17:20;18.80;99.90
5222;DHT22;2630;52.036;8.514;2022-10-31T14:20:21;18.80;99.90
5222;DHT22;2630;52.036;8.514;2022-10-31T14:22:45;18.80;99.90
5222;DHT22;2630;52.036;8.514;2022-10-31T14:25:28;18.70;99.90
5222;DHT22;2630;52.036;8.514;2022-10-31T14:27:54;18.60;99.90
5222;DHT22;2630;52.036;8.514;2022-10-31T14:30:22;18.60;99.90
5222;DHT22;2630;52.036;8.514;2022-10-31T14:32:51;18.60;99.90
5222;DHT22;2630;52.036;8.514;2022-10-31T14:35:18;18.60;99.90
5222;DHT22;2630;52.036;8.514;2022-10-31T14:38:01;18.60;99.90
5222;DHT22;2630;52.036;8.514;2022-10-31T14:40:52;18.60;99.90
5222;DHT22;2630;52.036;8.514;2022-10-31T14:46:25;18.50;99.90
5222;DHT22;2630;52.036;8.514;2022-10-31T14:49:12;18.50;99.90
5222;DHT22;2630;52.036;8.514;2022-10-31T14:51:43;18.50;99.90
5222;DHT22;2630;52.036;8.514;2022-10-31T14:54:17;18.50;99.90
5222;DHT22;2630;52.036;8.514;2022-10-31T14:56:54;18.50;99.90
5222;DHT22;2630;52.036;8.514;2022-10-31T14:59:25;18.40;99.90
5222;DHT22;2630;52.036;8.514;2022-10-31T15:02:14;18.40;99.90
5222;DHT22;2630;52.036;8.514;2022-10-31T15:04:43;18.30;99.90
5222;DHT22;2630;52.036;8.514;2022-10-31T15:07:17;18.20;99.90
5222;DHT22;2630;52.036;8.514;2022-10-31T15:09:43;18.10;99.90
5222;DHT22;2630;52.036;8.514;2022-10-31T15:14:52;18.00;99.90
5222;DHT22;2630;52.036;8.514;2022-10-31T15:17:19;17.90;99.90
5222;DHT22;2630;52.036;8.514;2022-10-31T15:22:15;17.80;99.90
5222;DHT22;2630;52.036;8.514;2022-10-31T15:24:41;17.80;99.90
5222;DHT22;2630;52.036;8.514;2022-10-31T15:29:48;17.70;99.90
5222;DHT22;2630;52.036;8.514;2022-10-31T15:32:26;17.70;99.90
5222;DHT22;2630;52.036;8.514;2022-10-31T15:34:52;17.70;99.90
5222;DHT22;2630;52.036;8.514;2022-10-31T15:37:20;17.70;99.90
5222;DHT22;2630;52.036;8.514;2022-10-31T15:39:48;17.70;99.90
5222;DHT22;2630;52.036;8.514;2022-10-31T15:42:35;17.70;99.90
5222;DHT22;2630;52.036;8.514;2022-10-31T15:45:15;17.70;99.90
5222;DHT22;2630;52.036;8.514;2022-10-31T15:48:28;17.60;99.90
5222;DHT22;2630;52.036;8.514;2022-10-31T15:50:57;17.60;99.90
5222;DHT22;2630;52.036;8.514;2022-10-31T15:55:58;17.50;99.90
5222;DHT22;2630;52.036;8.514;2022-10-31T15:58:25;17.50;99.90
5222;DHT22;2630;52.036;8.514;2022-10-31T16:01:00;17.50;99.90
5222;DHT22;2630;52.036;8.514;2022-10-31T16:03:32;17.50;99.90
5222;DHT22;2630;52.036;8.514;2022-10-31T16:06:03;17.50;99.90
5222;DHT22;2630;52.036;8.514;2022-10-31T16:10:59;17.40;99.90
5222;DHT22;2630;52.036;8.514;2022-10-31T16:13:51;17.30;99.90
5222;DHT22;2630;52.036;8.514;2022-10-31T16:16:18;17.30;99.90
5222;DHT22;2630;52.036;8.514;2022-10-31T16:18:46;17.30;99.90
5222;DHT22;2630;52.036;8.514;2022-10-31T16:21:12;17.20;99.90
5222;DHT22;2630;52.036;8.514;2022-10-31T16:23:39;17.20;99.90
5222;DHT22;2630;52.036;8.514;2022-10-31T16:26:09;17.20;99.90
5222;DHT22;2630;52.036;8.514;2022-10-31T16:31:13;17.20;99.90
5222;DHT22;2630;52.036;8.514;2022-10-31T16:33:39;17.10;99.90
5222;DHT22;2630;52.036;8.514;2022-10-31T16:38:57;17.10;99.90
5222;DHT22;2630;52.036;8.514;2022-10-31T16:41:23;17.00;99.90
5222;DHT22;2630;52.036;8.514;2022-10-31T16:43:50;17.00;99.90
5222;DHT22;2630;52.036;8.514;2022-10-31T16:46:27;17.00;99.90
5222;DHT22;2630;52.036;8.514;2022-10-31T16:48:53;16.90;99.90
5222;DHT22;2630;52.036;8.514;2022-10-31T16:51:19;16.90;99.90
5222;DHT22;2630;52.036;8.514;2022-10-31T16:53:45;16.90;99.90
5222;DHT22;2630;52.036;8.514;2022-10-31T16:56:21;16.90;99.90
5222;DHT22;2630;52.036;8.514;2022-10-31T16:58:49;16.90;99.90
5222;DHT22;2630;52.036;8.514;2022-10-31T17:01:15;16.80;99.90
5222;DHT22;2630;52.036;8.514;2022-10-31T17:03:41;16.80;99.90
5222;DHT22;2630;52.036;8.514;2022-10-31T17:08:36;16.80;99.90
5222;DHT22;2630;52.036;8.514;2022-10-31T17:11:02;16.70;99.90
5222;DHT22;2630;52.036;8.514;2022-10-31T17:13:29;16.70;99.90
5222;DHT22;2630;52.036;8.514;2022-10-31T17:19:18;16.70;99.90
5222;DHT22;2630;52.036;8.514;2022-10-31T17:24:13;16.80;99.90
5222;DHT22;2630;52.036;8.514;2022-10-31T17:26:39;16.80;99.90
5222;DHT22;2630;52.036;8.514;2022-10-31T17:29:05;16.80;99.90
5222;DHT22;2630;52.036;8.514;2022-10-31T17:31:32;16.80;99.90
5222;DHT22;2630;52.036;8.514;2022-10-31T17:34:01;16.80;99.90
5222;DHT22;2630;52.036;8.514;2022-10-31T17:36:28;16.80;99.90
5222;DHT22;2630;52.036;8.514;2022-10-31T17:38:53;16.80;99.90
5222;DHT22;2630;52.036;8.514;2022-10-31T17:41:19;16.70;99.90
5222;DHT22;2630;52.036;8.514;2022-10-31T17:43:44;16.70;99.90
5222;DHT22;2630;52.036;8.514;2022-10-31T17:46:10;16.70;99.90
5222;DHT22;2630;52.036;8.514;2022-10-31T17:48:36;16.60;99.90
5222;DHT22;2630;52.036;8.514;2022-10-31T17:51:03;16.60;99.90
5222;DHT22;2630;52.036;8.514;2022-10-31T17:53:30;16.60;99.90
5222;DHT22;2630;52.036;8.514;2022-10-31T17:56:03;16.50;99.90
5222;DHT22;2630;52.036;8.514;2022-10-31T17:58:29;16.40;99.90
5222;DHT22;2630;52.036;8.514;2022-10-31T18:00:55;16.30;99.90
5222;DHT22;2630;52.036;8.514;2022-10-31T18:03:27;16.30;99.90
5222;DHT22;2630;52.036;8.514;2022-10-31T18:05:56;16.20;99.90
5222;DHT22;2630;52.036;8.514;2022-10-31T18:08:30;16.20;99.90
5222;DHT22;2630;52.036;8.514;2022-10-31T18:10:57;16.20;99.90
5222;DHT22;2630;52.036;8.514;2022-10-31T18:15:54;16.10;99.90
5222;DHT22;2630;52.036;8.514;2022-10-31T18:18:20;16.10;99.90
5222;DHT22;2630;52.036;8.514;2022-10-31T18:20:45;16.00;99.90
5222;DHT22;2630;52.036;8.514;2022-10-31T18:23:11;16.00;99.90
5222;DHT22;2630;52.036;8.514;2022-10-31T18:25:37;15.90;99.90
5222;DHT22;2630;52.036;8.514;2022-10-31T18:28:06;15.90;99.90
5222;DHT22;2630;52.036;8.514;2022-10-31T18:30:33;15.90;99.90
5222;DHT22;2630;52.036;8.514;2022-10-31T18:32:58;15.80;99.90
5222;DHT22;2630;52.036;8.514;2022-10-31T18:35:24;15.80;99.90
5222;DHT22;2630;52.036;8.514;2022-10-31T18:42:41;15.60;99.90
5222;DHT22;2630;52.036;8.514;2022-10-31T18:45:07;15.50;99.90
5222;DHT22;2630;52.036;8.514;2022-10-31T18:47:33;15.40;99.90
5222;DHT22;2630;52.036;8.514;2022-10-31T18:49:58;15.40;99.90
5222;DHT22;2630;52.036;8.514;2022-10-31T18:52:24;15.30;99.90
5222;DHT22;2630;52.036;8.514;2022-10-31T18:54:49;15.20;99.90
5222;DHT22;2630;52.036;8.514;2022-10-31T18:59:41;14.90;99.90
5222;DHT22;2630;52.036;8.514;2022-10-31T19:02:08;14.80;99.90
5222;DHT22;2630;52.036;8.514;2022-10-31T19:04:34;14.70;99.90
5222;DHT22;2630;52.036;8.514;2022-10-31T19:06:59;14.70;99.90
5222;DHT22;2630;52.036;8.514;2022-10-31T19:09:25;14.70;99.90
5222;DHT22;2630;52.036;8.514;2022-10-31T19:11:51;14.70;99.90
5222;DHT22;2630;52.036;8.514;2022-10-31T19:14:16;14.60;99.90
5222;DHT22;2630;52.036;8.514;2022-10-31T19:19:08;14.50;99.90
5222;DHT22;2630;52.036;8.514;2022-10-31T19:24:00;14.50;99.90
5222;DHT22;2630;52.036;8.514;2022-10-31T19:28:54;14.50;99.90
5222;DHT22;2630;52.036;8.514;2022-10-31T19:31:20;14.50;99.90
5222;DHT22;2630;52.036;8.514;2022-10-31T19:33:46;14.70;99.90
5222;DHT22;2630;52.036;8.514;2022-10-31T19:36:14;14.60;99.90
5222;DHT22;2630;52.036;8.514;2022-10-31T19:38:42;14.60;99.90
5222;DHT22;2630;52.036;8.514;2022-10-31T19:41:20;14.70;99.90
5222;DHT22;2630;52.036;8.514;2022-10-31T19:43:46;14.70;99.90
5222;DHT22;2630;52.036;8.514;2022-10-31T19:46:14;14.60;99.90
5222;DHT22;2630;52.036;8.514;2022-10-31T19:48:40;14.60;99.90
5222;DHT22;2630;52.036;8.514;2022-10-31T19:51:08;14.60;99.90
5222;DHT22;2630;52.036;8.514;2022-10-31T19:53:34;14.70;99.90
5222;DHT22;2630;52.036;8.514;2022-10-31T19:56:00;14.70;99.90
5222;DHT22;2630;52.036;8.514;2022-10-31T19:58:27;14.70;99.90
5222;DHT22;2630;52.036;8.514;2022-10-31T20:00:53;14.80;99.90
5222;DHT22;2630;52.036;8.514;2022-10-31T20:03:19;14.80;99.90
5222;DHT22;2630;52.036;8.514;2022-10-31T20:08:14;14.80;99.90
5222;DHT22;2630;52.036;8.514;2022-10-31T20:10:41;14.90;99.90
5222;DHT22;2630;52.036;8.514;2022-10-31T20:13:07;14.90;99.90
5222;DHT22;2630;52.036;8.514;2022-10-31T20:15:33;15.00;99.90
5222;DHT22;2630;52.036;8.514;2022-10-31T20:17:58;15.00;99.90
5222;DHT22;2630;52.036;8.514;2022-10-31T20:20:24;15.00;99.90
5222;DHT22;2630;52.036;8.514;2022-10-31T20:22:50;15.10;99.90
5222;DHT22;2630;52.036;8.514;2022-10-31T20:25:15;15.10;99.90
5222;DHT22;2630;52.036;8.514;2022-10-31T20:27:41;15.10;99.90
5222;DHT22;2630;52.036;8.514;2022-10-31T20:30:07;15.20;99.90
5222;DHT22;2630;52.036;8.514;2022-10-31T20:32:33;15.20;99.90
5222;DHT22;2630;52.036;8.514;2022-10-31T20:34:58;15.10;99.90
5222;DHT22;2630;52.036;8.514;2022-10-31T20:37:24;15.20;99.90
5222;DHT22;2630;52.036;8.514;2022-10-31T20:42:15;15.10;99.90
5222;DHT22;2630;52.036;8.514;2022-10-31T20:44:41;15.10;99.90
5222;DHT22;2630;52.036;8.514;2022-10-31T20:47:07;15.00;99.90
5222;DHT22;2630;52.036;8.514;2022-10-31T20:49:32;15.00;99.90
5222;DHT22;2630;52.036;8.514;2022-10-31T20:54:24;15.00;99.90
5222;DHT22;2630;52.036;8.514;2022-10-31T20:56:49;15.00;99.90
5222;DHT22;2630;52.036;8.514;2022-10-31T21:01:43;15.00;99.90
5222;DHT22;2630;52.036;8.514;2022-10-31T21:04:09;15.00;99.90
5222;DHT22;2630;52.036;8.514;2022-10-31T21:06:36;15.10;99.90
5222;DHT22;2630;52.036;8.514;2022-10-31T21:09:03;15.20;99.90